sensor_id;sensor_type;location;lat;lon;timestamp;P1;P2;P0
78512;PMS5003;67809;55.034;73.462;2023-06-24T00:01:23;34.25;28.75;19.75
78512;PMS5003;67809;55.034;73.462;2023-06-24T00:03:49;34.00;28.00;19.00
78512;PMS5003;67809;55.034;73.462;2023-06-24T00:06:22;34.00;28.00;19.00
78512;PMS5003;67809;55.034;73.462;2023-06-24T00:08:51;27.67;23.00;15.00
78512;PMS5003;67809;55.034;73.462;2023-06-24T00:11:18;36.00;29.00;19.00
78512;PMS5003;67809;55.034;73.462;2023-06-24T00:13:44;34.50;28.25;19.25
78512;PMS5003;67809;55.034;73.462;2023-06-24T00:16:10;32.00;26.50;18.00
78512;PMS5003;67809;55.034;73.462;2023-06-24T00:18:37;31.00;25.00;18.00
78512;PMS5003;67809;55.034;73.462;2023-06-24T00:21:06;32.25;27.25;18.00
78512;PMS5003;67809;55.034;73.462;2023-06-24T00:23:32;29.00;24.25;17.00
78512;PMS5003;67809;55.034;73.462;2023-06-24T00:26:01;26.75;23.00;16.00
78512;PMS5003;67809;55.034;73.462;2023-06-24T00:28:28;26.00;23.00;15.00
78512;PMS5003;67809;55.034;73.462;2023-06-24T00:30:54;29.00;24.00;16.50
78512;PMS5003;67809;55.034;73.462;2023-06-24T00:33:20;27.00;23.00;15.00
78512;PMS5003;67809;55.034;73.462;2023-06-24T00:35:47;29.50;23.75;16.00
78512;PMS5003;67809;55.034;73.462;2023-06-24T00:38:14;30.00;25.00;17.00
78512;PMS5003;67809;55.034;73.462;2023-06-24T00:40:41;26.50;23.75;16.50
78512;PMS5003;67809;55.034;73.462;2023-06-24T00:43:08;27.75;24.00;16.75
78512;PMS5003;67809;55.034;73.462;2023-06-24T00:45:35;28.75;25.00;17.00
78512;PMS5003;67809;55.034;73.462;2023-06-24T00:48:01;27.00;23.00;17.00
78512;PMS5003;67809;55.034;73.462;2023-06-24T00:50:28;25.50;22.50;15.00
78512;PMS5003;67809;55.034;73.462;2023-06-24T00:52:56;24.00;21.00;15.00
78512;PMS5003;67809;55.034;73.462;2023-06-24T00:55:22;26.00;22.50;16.00
78512;PMS5003;67809;55.034;73.462;2023-06-24T00:57:50;22.00;20.00;14.00
78512;PMS5003;67809;55.034;73.462;2023-06-24T01:00:18;24.00;21.00;15.00
78512;PMS5003;67809;55.034;73.462;2023-06-24T01:02:48;22.50;19.75;13.00
78512;PMS5003;67809;55.034;73.462;2023-06-24T01:05:15;15.50;13.50;9.75
78512;PMS5003;67809;55.034;73.462;2023-06-24T01:07:42;17.25;14.75;9.75
78512;PMS5003;67809;55.034;73.462;2023-06-24T01:10:09;16.00;14.00;10.33
78512;PMS5003;67809;55.034;73.462;2023-06-24T01:12:36;17.00;15.00;9.00
78512;PMS5003;67809;55.034;73.462;2023-06-24T01:15:04;13.00;11.25;8.00
78512;PMS5003;67809;55.034;73.462;2023-06-24T01:17:35;14.75;12.50;8.50
78512;PMS5003;67809;55.034;73.462;2023-06-24T01:20:19;17.00;13.00;9.00
78512;PMS5003;67809;55.034;73.462;2023-06-24T01:32:46;15.00;14.00;10.00
78512;PMS5003;67809;55.034;73.462;2023-06-24T01:35:16;17.75;15.50;11.00
78512;PMS5003;67809;55.034;73.462;2023-06-24T01:37:47;22.00;19.00;13.00
78512;PMS5003;67809;55.034;73.462;2023-06-24T01:40:27;21.67;19.00;13.00
78512;PMS5003;67809;55.034;73.462;2023-06-24T01:42:59;20.00;18.50;13.00
78512;PMS5003;67809;55.034;73.462;2023-06-24T01:45:27;21.00;18.00;12.00
78512;PMS5003;67809;55.034;73.462;2023-06-24T01:47:59;23.00;19.00;12.00
78512;PMS5003;67809;55.034;73.462;2023-06-24T01:50:26;23.00;20.00;13.00
78512;PMS5003;67809;55.034;73.462;2023-06-24T01:52:53;20.75;17.75;12.00
78512;PMS5003;67809;55.034;73.462;2023-06-24T01:55:21;18.00;15.00;10.00
78512;PMS5003;67809;55.034;73.462;2023-06-24T01:57:49;12.00;11.00;7.50
78512;PMS5003;67809;55.034;73.462;2023-06-24T02:00:16;10.25;8.50;6.00
78512;PMS5003;67809;55.034;73.462;2023-06-24T02:02:49;12.00;10.00;7.00
78512;PMS5003;67809;55.034;73.462;2023-06-24T02:05:17;13.00;11.00;8.00
78512;PMS5003;67809;55.034;73.462;2023-06-24T02:07:43;10.00;9.00;6.00
78512;PMS5003;67809;55.034;73.462;2023-06-24T02:10:10;11.33;9.00;7.00
78512;PMS5003;67809;55.034;73.462;2023-06-24T02:12:37;8.00;7.25;5.00
78512;PMS5003;67809;55.034;73.462;2023-06-24T02:15:05;8.00;7.75;5.00
78512;PMS5003;67809;55.034;73.462;2023-06-24T02:17:32;11.00;9.00;6.00
78512;PMS5003;67809;55.034;73.462;2023-06-24T02:19:59;13.33;12.00;8.00
78512;PMS5003;67809;55.034;73.462;2023-06-24T02:22:26;13.00;12.00;8.00
78512;PMS5003;67809;55.034;73.462;2023-06-24T02:24:53;13.25;11.00;7.75
78512;PMS5003;67809;55.034;73.462;2023-06-24T02:27:20;11.00;10.25;7.00
78512;PMS5003;67809;55.034;73.462;2023-06-24T02:29:47;11.00;10.00;6.33
78512;PMS5003;67809;55.034;73.462;2023-06-24T02:32:14;9.50;8.75;6.00
78512;PMS5003;67809;55.034;73.462;2023-06-24T02:34:40;9.00;8.00;5.00
78512;PMS5003;67809;55.034;73.462;2023-06-24T02:37:06;11.00;9.00;6.00
78512;PMS5003;67809;55.034;73.462;2023-06-24T02:39:33;10.00;8.00;6.00
78512;PMS5003;67809;55.034;73.462;2023-06-24T02:41:59;8.00;7.00;5.00
78512;PMS5003;67809;55.034;73.462;2023-06-24T02:44:25;8.00;7.00;5.00
78512;PMS5003;67809;55.034;73.462;2023-06-24T02:46:51;8.00;8.00;6.00
78512;PMS5003;67809;55.034;73.462;2023-06-24T02:49:19;9.00;8.25;6.00
78512;PMS5003;67809;55.034;73.462;2023-06-24T02:51:46;8.00;8.00;5.00
78512;PMS5003;67809;55.034;73.462;2023-06-24T02:54:14;9.00;8.00;5.00
78512;PMS5003;67809;55.034;73.462;2023-06-24T02:57:03;8.00;7.00;5.00
78512;PMS5003;67809;55.034;73.462;2023-06-24T02:59:52;8.00;7.00;5.00
78512;PMS5003;67809;55.034;73.462;2023-06-24T03:02:19;7.00;7.00;5.00
78512;PMS5003;67809;55.034;73.462;2023-06-24T03:04:45;7.00;6.50;5.00
78512;PMS5003;67809;55.034;73.462;2023-06-24T03:07:12;7.00;6.00;5.00
78512;PMS5003;67809;55.034;73.462;2023-06-24T03:09:42;7.00;6.00;4.00
78512;PMS5003;67809;55.034;73.462;2023-06-24T03:12:08;7.00;7.00;5.00
78512;PMS5003;67809;55.034;73.462;2023-06-24T03:14:42;6.00;5.75;4.00
78512;PMS5003;67809;55.034;73.462;2023-06-24T03:17:08;7.00;6.25;5.00
78512;PMS5003;67809;55.034;73.462;2023-06-24T03:19:34;10.00;8.75;6.00
78512;PMS5003;67809;55.034;73.462;2023-06-24T03:22:00;7.75;7.00;5.00
78512;PMS5003;67809;55.034;73.462;2023-06-24T03:24:28;8.00;7.00;5.00
78512;PMS5003;67809;55.034;73.462;2023-06-24T03:26:55;8.50;8.00;6.00
78512;PMS5003;67809;55.034;73.462;2023-06-24T03:29:26;7.00;6.00;5.00
78512;PMS5003;67809;55.034;73.462;2023-06-24T03:31:59;9.25;7.50;5.00
78512;PMS5003;67809;55.034;73.462;2023-06-24T03:34:26;8.00;8.00;5.00
78512;PMS5003;67809;55.034;73.462;2023-06-24T03:36:53;7.25;7.00;5.00
78512;PMS5003;67809;55.034;73.462;2023-06-24T03:39:23;8.00;6.00;5.00
78512;PMS5003;67809;55.034;73.462;2023-06-24T03:41:49;8.00;7.00;5.00
78512;PMS5003;67809;55.034;73.462;2023-06-24T03:44:15;7.50;7.00;5.00
78512;PMS5003;67809;55.034;73.462;2023-06-24T03:46:41;9.00;8.00;5.00
78512;PMS5003;67809;55.034;73.462;2023-06-24T03:49:09;10.00;9.00;6.00
78512;PMS5003;67809;55.034;73.462;2023-06-24T03:51:36;8.00;7.00;5.00
78512;PMS5003;67809;55.034;73.462;2023-06-24T03:54:02;9.00;8.00;6.00
78512;PMS5003;67809;55.034;73.462;2023-06-24T03:56:28;5.50;5.25;4.00
78512;PMS5003;67809;55.034;73.462;2023-06-24T03:58:54;6.50;6.00;4.00
78512;PMS5003;67809;55.034;73.462;2023-06-24T04:01:21;6.00;6.00;4.00
78512;PMS5003;67809;55.034;73.462;2023-06-24T04:03:47;7.00;7.00;4.00
78512;PMS5003;67809;55.034;73.462;2023-06-24T04:06:13;7.00;7.00;5.00
78512;PMS5003;67809;55.034;73.462;2023-06-24T04:08:39;8.00;7.00;5.00
78512;PMS5003;67809;55.034;73.462;2023-06-24T04:11:05;6.67;6.00;4.67
78512;PMS5003;67809;55.034;73.462;2023-06-24T04:13:32;9.00;8.00;5.00
78512;PMS5003;67809;55.034;73.462;2023-06-24T04:15:58;7.00;6.00;4.00
78512;PMS5003;67809;55.034;73.462;2023-06-24T04:18:25;8.00;8.00;5.00
78512;PMS5003;67809;55.034;73.462;2023-06-24T04:20:51;9.00;7.00;5.00
78512;PMS5003;67809;55.034;73.462;2023-06-24T04:23:18;10.00;8.00;6.00
78512;PMS5003;67809;55.034;73.462;2023-06-24T04:25:44;7.25;7.00;5.00
78512;PMS5003;67809;55.034;73.462;2023-06-24T04:28:10;7.00;6.00;5.00
78512;PMS5003;67809;55.034;73.462;2023-06-24T04:30:39;9.00;7.75;5.00
78512;PMS5003;67809;55.034;73.462;2023-06-24T04:33:07;9.00;8.00;5.00
78512;PMS5003;67809;55.034;73.462;2023-06-24T04:35:33;7.50;7.00;5.00
78512;PMS5003;67809;55.034;73.462;2023-06-24T04:38:00;9.00;8.00;5.50
78512;PMS5003;67809;55.034;73.462;2023-06-24T04:40:26;10.00;8.00;5.00
78512;PMS5003;67809;55.034;73.462;2023-06-24T04:42:52;8.00;7.00;5.00
78512;PMS5003;67809;55.034;73.462;2023-06-24T04:45:18;9.00;8.00;5.00
78512;PMS5003;67809;55.034;73.462;2023-06-24T04:47:44;9.00;8.00;4.00
78512;PMS5003;67809;55.034;73.462;2023-06-24T04:50:10;7.00;7.00;5.00
78512;PMS5003;67809;55.034;73.462;2023-06-24T04:52:37;8.00;8.00;5.00
78512;PMS5003;67809;55.034;73.462;2023-06-24T04:55:03;7.50;7.00;5.00
78512;PMS5003;67809;55.034;73.462;2023-06-24T04:57:30;9.00;7.00;5.00
78512;PMS5003;67809;55.034;73.462;2023-06-24T04:59:58;6.00;6.00;4.00
78512;PMS5003;67809;55.034;73.462;2023-06-24T05:02:24;7.00;6.25;5.00
78512;PMS5003;67809;55.034;73.462;2023-06-24T05:04:51;8.00;7.00;5.00
78512;PMS5003;67809;55.034;73.462;2023-06-24T05:07:17;9.00;8.00;6.00
78512;PMS5003;67809;55.034;73.462;2023-06-24T05:09:47;7.00;7.00;4.00
78512;PMS5003;67809;55.034;73.462;2023-06-24T05:12:14;10.00;9.00;6.00
78512;PMS5003;67809;55.034;73.462;2023-06-24T05:14:40;8.00;7.00;5.00
78512;PMS5003;67809;55.034;73.462;2023-06-24T05:17:06;10.00;8.00;5.50
78512;PMS5003;67809;55.034;73.462;2023-06-24T05:19:32;7.75;6.75;5.00
78512;PMS5003;67809;55.034;73.462;2023-06-24T05:21:58;8.00;7.00;5.00
78512;PMS5003;67809;55.034;73.462;2023-06-24T05:24:24;8.00;7.00;5.00
78512;PMS5003;67809;55.034;73.462;2023-06-24T05:26:51;7.00;6.50;5.00
78512;PMS5003;67809;55.034;73.462;2023-06-24T05:29:17;7.00;6.00;5.00
78512;PMS5003;67809;55.034;73.462;2023-06-24T05:31:43;8.75;8.00;6.00
78512;PMS5003;67809;55.034;73.462;2023-06-24T05:34:09;8.25;7.50;4.75
78512;PMS5003;67809;55.034;73.462;2023-06-24T05:36:35;7.50;6.75;5.00
78512;PMS5003;67809;55.034;73.462;2023-06-24T05:39:02;9.00;8.00;5.50
78512;PMS5003;67809;55.034;73.462;2023-06-24T05:41:28;10.00;9.00;7.00
78512;PMS5003;67809;55.034;73.462;2023-06-24T05:44:04;14.00;11.00;8.00
78512;PMS5003;67809;55.034;73.462;2023-06-24T05:46:30;9.25;8.25;6.00
78512;PMS5003;67809;55.034;73.462;2023-06-24T05:48:56;10.00;9.00;6.75
78512;PMS5003;67809;55.034;73.462;2023-06-24T05:51:22;6.75;6.25;4.50
78512;PMS5003;67809;55.034;73.462;2023-06-24T05:53:50;10.00;9.50;7.00
78512;PMS5003;67809;55.034;73.462;2023-06-24T05:56:17;7.00;6.00;4.25
78512;PMS5003;67809;55.034;73.462;2023-06-24T05:58:43;7.00;6.50;5.00
78512;PMS5003;67809;55.034;73.462;2023-06-24T06:01:09;7.00;6.00;4.00
78512;PMS5003;67809;55.034;73.462;2023-06-24T06:03:35;7.00;6.00;5.00
78512;PMS5003;67809;55.034;73.462;2023-06-24T06:06:01;7.00;6.00;4.00
78512;PMS5003;67809;55.034;73.462;2023-06-24T06:08:27;6.75;6.00;5.00
78512;PMS5003;67809;55.034;73.462;2023-06-24T06:10:54;6.00;6.00;4.00
78512;PMS5003;67809;55.034;73.462;2023-06-24T06:13:20;6.75;6.00;4.00
78512;PMS5003;67809;55.034;73.462;2023-06-24T06:15:46;7.00;7.00;4.00
78512;PMS5003;67809;55.034;73.462;2023-06-24T06:18:12;7.00;6.50;5.00
78512;PMS5003;67809;55.034;73.462;2023-06-24T06:20:41;6.00;6.00;4.00
78512;PMS5003;67809;55.034;73.462;2023-06-24T06:23:07;6.00;6.00;4.25
78512;PMS5003;67809;55.034;73.462;2023-06-24T06:25:33;7.00;7.00;5.00
78512;PMS5003;67809;55.034;73.462;2023-06-24T06:28:00;5.00;5.00;3.00
78512;PMS5003;67809;55.034;73.462;2023-06-24T06:30:26;7.00;6.00;4.00
78512;PMS5003;67809;55.034;73.462;2023-06-24T06:32:52;7.00;7.00;5.00
78512;PMS5003;67809;55.034;73.462;2023-06-24T06:35:19;7.00;6.00;4.50
78512;PMS5003;67809;55.034;73.462;2023-06-24T06:37:45;7.00;7.00;5.00
78512;PMS5003;67809;55.034;73.462;2023-06-24T06:40:13;6.00;5.00;4.00
78512;PMS5003;67809;55.034;73.462;2023-06-24T06:42:39;6.00;5.00;3.00
78512;PMS5003;67809;55.034;73.462;2023-06-24T06:45:05;5.50;5.00;4.00
78512;PMS5003;67809;55.034;73.462;2023-06-24T06:47:31;6.00;6.00;4.00
78512;PMS5003;67809;55.034;73.462;2023-06-24T06:49:58;6.00;6.00;4.00
78512;PMS5003;67809;55.034;73.462;2023-06-24T06:52:24;5.00;4.75;3.25
78512;PMS5003;67809;55.034;73.462;2023-06-24T06:54:50;4.00;4.00;3.00
78512;PMS5003;67809;55.034;73.462;2023-06-24T06:57:16;5.00;5.00;3.75
78512;PMS5003;67809;55.034;73.462;2023-06-24T06:59:42;5.00;5.00;4.00
78512;PMS5003;67809;55.034;73.462;2023-06-24T07:02:08;5.00;5.00;4.00
78512;PMS5003;67809;55.034;73.462;2023-06-24T07:04:34;5.25;5.00;4.00
78512;PMS5003;67809;55.034;73.462;2023-06-24T07:07:00;6.50;6.00;4.00
78512;PMS5003;67809;55.034;73.462;2023-06-24T07:09:27;6.00;5.00;4.00
78512;PMS5003;67809;55.034;73.462;2023-06-24T07:11:54;5.67;5.00;4.00
78512;PMS5003;67809;55.034;73.462;2023-06-24T07:14:20;8.00;7.00;5.00
78512;PMS5003;67809;55.034;73.462;2023-06-24T07:16:46;5.00;5.00;3.25
78512;PMS5003;67809;55.034;73.462;2023-06-24T07:19:12;5.75;5.00;3.00
78512;PMS5003;67809;55.034;73.462;2023-06-24T07:21:38;6.00;5.00;3.00
78512;PMS5003;67809;55.034;73.462;2023-06-24T07:24:05;7.00;6.00;4.00
78512;PMS5003;67809;55.034;73.462;2023-06-24T07:26:31;5.00;5.00;4.00
78512;PMS5003;67809;55.034;73.462;2023-06-24T07:28:57;5.00;5.00;4.00
78512;PMS5003;67809;55.034;73.462;2023-06-24T07:31:30;6.00;5.00;3.00
78512;PMS5003;67809;55.034;73.462;2023-06-24T07:33:56;5.00;5.00;4.00
78512;PMS5003;67809;55.034;73.462;2023-06-24T07:36:22;6.00;5.00;4.00
78512;PMS5003;67809;55.034;73.462;2023-06-24T07:38:49;5.00;5.00;4.00
78512;PMS5003;67809;55.034;73.462;2023-06-24T07:41:15;6.00;6.00;4.00
78512;PMS5003;67809;55.034;73.462;2023-06-24T07:43:41;6.00;6.00;4.00
78512;PMS5003;67809;55.034;73.462;2023-06-24T07:46:07;6.75;6.00;4.00
78512;PMS5003;67809;55.034;73.462;2023-06-24T07:48:33;5.00;5.00;4.00
78512;PMS5003;67809;55.034;73.462;2023-06-24T07:50:59;5.00;4.50;3.25
78512;PMS5003;67809;55.034;73.462;2023-06-24T07:53:25;5.00;5.00;4.00
78512;PMS5003;67809;55.034;73.462;2023-06-24T07:55:51;6.25;6.00;4.00
78512;PMS5003;67809;55.034;73.462;2023-06-24T07:58:18;6.50;6.00;4.00
78512;PMS5003;67809;55.034;73.462;2023-06-24T08:00:45;6.00;5.50;4.00
78512;PMS5003;67809;55.034;73.462;2023-06-24T08:03:12;6.33;6.00;4.00
78512;PMS5003;67809;55.034;73.462;2023-06-24T08:05:38;8.00;7.00;5.00
78512;PMS5003;67809;55.034;73.462;2023-06-24T08:08:07;7.00;6.00;4.00
78512;PMS5003;67809;55.034;73.462;2023-06-24T08:10:34;4.50;4.00;4.00
78512;PMS5003;67809;55.034;73.462;2023-06-24T08:13:00;6.00;5.00;3.00
78512;PMS5003;67809;55.034;73.462;2023-06-24T08:15:26;6.00;6.00;4.00
78512;PMS5003;67809;55.034;73.462;2023-06-24T08:17:52;7.75;7.25;4.50
78512;PMS5003;67809;55.034;73.462;2023-06-24T08:20:22;6.00;5.00;3.00
78512;PMS5003;67809;55.034;73.462;2023-06-24T08:22:48;7.00;6.33;5.00
78512;PMS5003;67809;55.034;73.462;2023-06-24T08:25:14;6.00;5.00;4.00
78512;PMS5003;67809;55.034;73.462;2023-06-24T08:27:40;5.00;5.00;3.50
78512;PMS5003;67809;55.034;73.462;2023-06-24T08:30:07;6.00;6.00;5.00
78512;PMS5003;67809;55.034;73.462;2023-06-24T08:32:33;4.50;4.00;3.00
78512;PMS5003;67809;55.034;73.462;2023-06-24T08:34:59;6.00;5.00;4.00
78512;PMS5003;67809;55.034;73.462;2023-06-24T08:37:37;7.00;7.00;4.00
78512;PMS5003;67809;55.034;73.462;2023-06-24T08:40:03;5.00;5.00;4.00
78512;PMS5003;67809;55.034;73.462;2023-06-24T08:42:30;6.00;5.25;4.00
78512;PMS5003;67809;55.034;73.462;2023-06-24T08:44:56;5.00;4.00;4.00
78512;PMS5003;67809;55.034;73.462;2023-06-24T08:47:25;5.25;5.00;4.00
78512;PMS5003;67809;55.034;73.462;2023-06-24T08:49:55;7.00;6.00;4.00
78512;PMS5003;67809;55.034;73.462;2023-06-24T08:52:27;6.00;5.00;4.00
78512;PMS5003;67809;55.034;73.462;2023-06-24T08:54:55;5.50;5.00;4.00
78512;PMS5003;67809;55.034;73.462;2023-06-24T08:57:23;5.00;5.00;3.50
78512;PMS5003;67809;55.034;73.462;2023-06-24T08:59:50;6.00;6.00;4.00
78512;PMS5003;67809;55.034;73.462;2023-06-24T09:02:16;5.75;5.00;3.00
78512;PMS5003;67809;55.034;73.462;2023-06-24T09:04:42;5.33;5.00;4.00
78512;PMS5003;67809;55.034;73.462;2023-06-24T09:07:09;6.00;5.00;4.00
78512;PMS5003;67809;55.034;73.462;2023-06-24T09:09:45;6.50;6.00;4.00
78512;PMS5003;67809;55.034;73.462;2023-06-24T09:12:12;5.00;5.00;3.00
78512;PMS5003;67809;55.034;73.462;2023-06-24T09:14:38;5.00;5.00;3.00
78512;PMS5003;67809;55.034;73.462;2023-06-24T09:17:06;6.00;5.00;4.00
78512;PMS5003;67809;55.034;73.462;2023-06-24T09:19:35;4.25;4.00;3.00
78512;PMS5003;67809;55.034;73.462;2023-06-24T09:22:05;4.00;4.00;3.00
78512;PMS5003;67809;55.034;73.462;2023-06-24T09:24:32;7.00;6.75;5.00
78512;PMS5003;67809;55.034;73.462;2023-06-24T09:27:02;6.00;5.00;3.00
78512;PMS5003;67809;55.034;73.462;2023-06-24T09:29:31;5.00;5.00;4.00
78512;PMS5003;67809;55.034;73.462;2023-06-24T09:31:58;6.00;6.00;4.00
78512;PMS5003;67809;55.034;73.462;2023-06-24T09:34:26;7.00;6.00;4.00
78512;PMS5003;67809;55.034;73.462;2023-06-24T09:36:52;7.00;7.00;5.00
78512;PMS5003;67809;55.034;73.462;2023-06-24T09:39:19;5.00;5.00;4.00
78512;PMS5003;67809;55.034;73.462;2023-06-24T09:41:50;5.00;5.00;3.00
78512;PMS5003;67809;55.034;73.462;2023-06-24T09:44:17;5.00;5.00;3.00
78512;PMS5003;67809;55.034;73.462;2023-06-24T09:46:46;5.00;5.00;3.00
78512;PMS5003;67809;55.034;73.462;2023-06-24T09:49:12;6.00;5.00;3.00
78512;PMS5003;67809;55.034;73.462;2023-06-24T09:51:39;5.00;5.00;3.00
78512;PMS5003;67809;55.034;73.462;2023-06-24T09:54:06;5.00;5.00;3.00
78512;PMS5003;67809;55.034;73.462;2023-06-24T09:56:35;6.00;5.25;4.00
78512;PMS5003;67809;55.034;73.462;2023-06-24T09:59:03;6.25;6.00;4.00
78512;PMS5003;67809;55.034;73.462;2023-06-24T10:01:32;6.00;6.00;4.00
78512;PMS5003;67809;55.034;73.462;2023-06-24T10:03:58;5.00;5.00;4.00
78512;PMS5003;67809;55.034;73.462;2023-06-24T10:06:25;6.00;5.00;4.00
78512;PMS5003;67809;55.034;73.462;2023-06-24T10:08:52;5.00;5.00;3.00
78512;PMS5003;67809;55.034;73.462;2023-06-24T10:11:18;5.00;5.00;3.00
78512;PMS5003;67809;55.034;73.462;2023-06-24T10:13:44;5.00;5.00;3.00
78512;PMS5003;67809;55.034;73.462;2023-06-24T10:16:11;5.00;5.00;3.75
78512;PMS5003;67809;55.034;73.462;2023-06-24T10:18:37;7.00;6.00;4.00
78512;PMS5003;67809;55.034;73.462;2023-06-24T10:21:04;5.00;5.00;4.00
78512;PMS5003;67809;55.034;73.462;2023-06-24T10:23:31;5.00;4.00;3.00
78512;PMS5003;67809;55.034;73.462;2023-06-24T10:25:57;4.75;4.00;3.00
78512;PMS5003;67809;55.034;73.462;2023-06-24T10:28:24;4.00;4.00;3.00
78512;PMS5003;67809;55.034;73.462;2023-06-24T10:30:56;6.00;5.50;4.00
78512;PMS5003;67809;55.034;73.462;2023-06-24T10:33:23;4.25;4.00;3.00
78512;PMS5003;67809;55.034;73.462;2023-06-24T10:35:50;7.00;6.00;4.00
78512;PMS5003;67809;55.034;73.462;2023-06-24T10:38:18;6.00;5.00;4.00
78512;PMS5003;67809;55.034;73.462;2023-06-24T10:40:44;5.00;5.00;3.00
78512;PMS5003;67809;55.034;73.462;2023-06-24T10:43:29;5.00;5.00;4.00
78512;PMS5003;67809;55.034;73.462;2023-06-24T10:45:56;5.00;5.00;4.00
78512;PMS5003;67809;55.034;73.462;2023-06-24T10:48:23;6.00;6.00;4.75
78512;PMS5003;67809;55.034;73.462;2023-06-24T10:50:49;5.00;5.00;4.00
78512;PMS5003;67809;55.034;73.462;2023-06-24T10:53:16;6.00;5.00;3.25
78512;PMS5003;67809;55.034;73.462;2023-06-24T10:55:44;5.67;5.00;4.00
78512;PMS5003;67809;55.034;73.462;2023-06-24T10:58:12;7.00;7.00;5.00
78512;PMS5003;67809;55.034;73.462;2023-06-24T11:00:40;6.00;6.00;4.00
78512;PMS5003;67809;55.034;73.462;2023-06-24T11:03:15;7.25;6.75;5.00
78512;PMS5003;67809;55.034;73.462;2023-06-24T11:05:42;5.00;5.00;3.00
78512;PMS5003;67809;55.034;73.462;2023-06-24T11:08:09;5.75;5.25;3.50
78512;PMS5003;67809;55.034;73.462;2023-06-24T11:11:08;6.00;6.00;5.00
78512;PMS5003;67809;55.034;73.462;2023-06-24T11:13:31;8.00;7.00;5.00
78512;PMS5003;67809;55.034;73.462;2023-06-24T11:15:59;7.00;6.00;4.00
78512;PMS5003;67809;55.034;73.462;2023-06-24T11:18:25;7.25;7.00;5.00
78512;PMS5003;67809;55.034;73.462;2023-06-24T11:20:53;8.00;8.00;6.00
78512;PMS5003;67809;55.034;73.462;2023-06-24T11:23:21;7.00;6.00;5.00
78512;PMS5003;67809;55.034;73.462;2023-06-24T11:25:47;8.25;8.00;6.00
78512;PMS5003;67809;55.034;73.462;2023-06-24T11:28:13;8.00;7.00;4.00
78512;PMS5003;67809;55.034;73.462;2023-06-24T11:30:40;7.00;6.50;5.00
78512;PMS5003;67809;55.034;73.462;2023-06-24T11:33:06;6.25;6.00;4.00
78512;PMS5003;67809;55.034;73.462;2023-06-24T11:35:32;8.00;7.00;5.00
78512;PMS5003;67809;55.034;73.462;2023-06-24T11:38:02;7.00;6.75;5.00
78512;PMS5003;67809;55.034;73.462;2023-06-24T11:40:28;6.75;6.00;4.00
78512;PMS5003;67809;55.034;73.462;2023-06-24T11:42:56;9.00;9.00;6.00
78512;PMS5003;67809;55.034;73.462;2023-06-24T11:45:22;8.00;7.00;4.67
78512;PMS5003;67809;55.034;73.462;2023-06-24T11:47:48;6.00;5.00;4.00
78512;PMS5003;67809;55.034;73.462;2023-06-24T11:50:14;7.00;6.00;4.25
78512;PMS5003;67809;55.034;73.462;2023-06-24T12:02:50;9.00;8.00;5.00
78512;PMS5003;67809;55.034;73.462;2023-06-24T12:05:20;7.33;7.00;5.00
78512;PMS5003;67809;55.034;73.462;2023-06-24T12:07:53;7.25;7.00;5.00
78512;PMS5003;67809;55.034;73.462;2023-06-24T12:10:20;7.00;6.00;4.00
78512;PMS5003;67809;55.034;73.462;2023-06-24T12:12:46;7.00;7.00;5.00
78512;PMS5003;67809;55.034;73.462;2023-06-24T12:15:12;9.00;8.00;5.00
78512;PMS5003;67809;55.034;73.462;2023-06-24T12:17:38;10.00;9.00;6.00
78512;PMS5003;67809;55.034;73.462;2023-06-24T12:20:04;8.00;7.25;6.00
78512;PMS5003;67809;55.034;73.462;2023-06-24T12:22:30;10.00;9.00;6.00
78512;PMS5003;67809;55.034;73.462;2023-06-24T12:24:56;11.00;10.00;6.00
78512;PMS5003;67809;55.034;73.462;2023-06-24T12:27:22;9.00;7.75;5.50
78512;PMS5003;67809;55.034;73.462;2023-06-24T12:29:49;7.00;7.00;5.00
78512;PMS5003;67809;55.034;73.462;2023-06-24T12:32:15;6.00;6.00;4.00
78512;PMS5003;67809;55.034;73.462;2023-06-24T12:34:41;9.00;7.75;4.75
78512;PMS5003;67809;55.034;73.462;2023-06-24T12:37:07;11.00;9.00;5.75
78512;PMS5003;67809;55.034;73.462;2023-06-24T12:39:33;8.00;7.75;5.75
78512;PMS5003;67809;55.034;73.462;2023-06-24T12:41:59;7.50;7.00;5.00
78512;PMS5003;67809;55.034;73.462;2023-06-24T12:44:26;9.00;8.00;5.00
78512;PMS5003;67809;55.034;73.462;2023-06-24T12:46:53;11.00;10.00;7.00
78512;PMS5003;67809;55.034;73.462;2023-06-24T12:49:19;9.00;8.00;5.50
78512;PMS5003;67809;55.034;73.462;2023-06-24T12:51:46;8.00;7.50;5.00
78512;PMS5003;67809;55.034;73.462;2023-06-24T12:54:12;10.00;8.50;5.25
78512;PMS5003;67809;55.034;73.462;2023-06-24T12:56:38;11.00;10.00;6.00
78512;PMS5003;67809;55.034;73.462;2023-06-24T12:59:04;11.00;10.00;7.00
78512;PMS5003;67809;55.034;73.462;2023-06-24T13:01:31;10.25;9.25;6.00
78512;PMS5003;67809;55.034;73.462;2023-06-24T13:03:58;10.25;9.00;6.00
78512;PMS5003;67809;55.034;73.462;2023-06-24T13:06:24;11.50;10.00;6.00
78512;PMS5003;67809;55.034;73.462;2023-06-24T13:08:50;9.25;8.25;5.50
78512;PMS5003;67809;55.034;73.462;2023-06-24T13:11:17;11.00;10.50;7.50
78512;PMS5003;67809;55.034;73.462;2023-06-24T13:13:43;12.00;11.00;7.00
78512;PMS5003;67809;55.034;73.462;2023-06-24T13:16:09;12.00;10.67;7.00
78512;PMS5003;67809;55.034;73.462;2023-06-24T13:18:35;11.25;10.75;8.00
78512;PMS5003;67809;55.034;73.462;2023-06-24T13:21:01;14.75;12.00;7.00
78512;PMS5003;67809;55.034;73.462;2023-06-24T13:23:28;12.50;11.00;8.00
78512;PMS5003;67809;55.034;73.462;2023-06-24T13:25:54;18.00;13.00;8.00
78512;PMS5003;67809;55.034;73.462;2023-06-24T13:28:20;13.00;12.00;8.25
78512;PMS5003;67809;55.034;73.462;2023-06-24T13:30:46;17.00;14.00;9.00
78512;PMS5003;67809;55.034;73.462;2023-06-24T13:33:12;20.00;15.00;10.00
78512;PMS5003;67809;55.034;73.462;2023-06-24T13:35:38;18.00;15.00;9.75
78512;PMS5003;67809;55.034;73.462;2023-06-24T13:38:04;20.25;16.00;10.00
78512;PMS5003;67809;55.034;73.462;2023-06-24T13:40:33;16.00;13.00;8.50
78512;PMS5003;67809;55.034;73.462;2023-06-24T13:43:00;16.00;13.00;8.00
78512;PMS5003;67809;55.034;73.462;2023-06-24T13:45:26;12.00;10.00;6.00
78512;PMS5003;67809;55.034;73.462;2023-06-24T13:47:53;15.00;12.00;7.00
78512;PMS5003;67809;55.034;73.462;2023-06-24T13:50:20;13.00;12.00;7.50
78512;PMS5003;67809;55.034;73.462;2023-06-24T13:52:46;16.00;13.00;8.00
78512;PMS5003;67809;55.034;73.462;2023-06-24T13:55:17;20.00;16.00;10.00
78512;PMS5003;67809;55.034;73.462;2023-06-24T13:57:43;20.75;17.00;11.00
78512;PMS5003;67809;55.034;73.462;2023-06-24T14:00:09;25.00;19.00;12.00
78512;PMS5003;67809;55.034;73.462;2023-06-24T14:02:39;22.75;17.00;11.00
78512;PMS5003;67809;55.034;73.462;2023-06-24T14:05:06;24.00;18.00;11.00
78512;PMS5003;67809;55.034;73.462;2023-06-24T14:07:32;22.00;19.00;12.00
78512;PMS5003;67809;55.034;73.462;2023-06-24T14:09:59;23.50;18.50;11.00
78512;PMS5003;67809;55.034;73.462;2023-06-24T14:12:26;18.75;14.75;8.75
78512;PMS5003;67809;55.034;73.462;2023-06-24T14:14:52;18.75;14.50;9.00
78512;PMS5003;67809;55.034;73.462;2023-06-24T14:17:18;14.00;12.00;8.00
78512;PMS5003;67809;55.034;73.462;2023-06-24T14:19:45;10.00;9.00;6.00
78512;PMS5003;67809;55.034;73.462;2023-06-24T14:22:12;8.75;7.00;5.00